createdAt,value
2019-04-28T00:01:31.173Z,90.01
2019-04-28T00:03:57.063Z,89.67
2019-04-28T00:06:22.843Z,90.21
2019-04-28T00:08:48.743Z,90.03
2019-04-28T00:11:14.533Z,90.02
2019-04-28T00:13:41.782Z,90.03
2019-04-28T00:16:07.635Z,90.28
2019-04-28T00:18:33.428Z,90.28
2019-04-28T00:21:10.939Z,89.68
2019-04-28T00:23:47.606Z,90.05
2019-04-28T00:26:31.091Z,90.47
2019-04-28T00:28:56.957Z,90.11
2019-04-28T00:31:22.760Z,89.72
2019-04-28T00:33:48.560Z,89.86
2019-04-28T00:36:14.345Z,89.63
2019-04-28T00:38:41.528Z,89.83
2019-04-28T00:41:07.353Z,89.90
2019-04-28T00:43:33.150Z,89.90
2019-04-28T00:46:00.595Z,90.05
2019-04-28T00:48:26.847Z,89.35
2019-04-28T00:50:52.635Z,89.46
2019-04-28T00:53:18.426Z,89.64
2019-04-28T00:55:44.223Z,89.92
2019-04-28T00:58:10.915Z,90.18
2019-04-28T01:00:41.492Z,90.18
2019-04-28T01:03:07.338Z,89.75
2019-04-28T01:05:33.116Z,89.75
2019-04-28T01:07:58.911Z,90.03
2019-04-28T01:10:25.905Z,89.53
2019-04-28T01:12:51.701Z,89.63
2019-04-28T01:15:22.180Z,89.63
2019-04-28T01:17:49.877Z,89.57
2019-04-28T01:20:19.554Z,88.90
2019-04-28T01:22:45.290Z,88.90
2019-04-28T01:25:11.184Z,89.46
2019-04-28T01:27:40.297Z,88.92
2019-04-28T01:30:11.028Z,89.31
2019-04-28T01:32:43.655Z,89.17
2019-04-28T01:35:09.761Z,89.34
2019-04-28T01:37:35.553Z,89.34
2019-04-28T01:40:01.461Z,89.55
2019-04-28T01:42:27.239Z,89.71
2019-04-28T01:44:53.034Z,90.04
2019-04-28T01:47:20.474Z,90.13
2019-04-28T01:49:46.418Z,90.80
2019-04-28T01:52:12.201Z,90.80
2019-04-28T01:54:40.076Z,91.04
2019-04-28T01:57:05.728Z,91.19
2019-04-28T01:59:31.521Z,90.38
2019-04-28T02:01:57.308Z,90.32
2019-04-28T02:04:23.092Z,90.16
2019-04-28T02:06:52.027Z,90.09
2019-04-28T02:09:19.521Z,90.58
2019-04-28T02:11:45.666Z,90.58
2019-04-28T02:14:11.459Z,90.68
2019-04-28T02:16:37.504Z,90.68
2019-04-28T02:19:03.519Z,91.28
2019-04-28T02:21:37.010Z,91.28
2019-04-28T02:24:21.211Z,91.47
2019-04-28T02:26:47.009Z,91.47
2019-04-28T02:29:12.788Z,91.23
2019-04-28T02:31:41.457Z,91.85
2019-04-28T02:34:06.433Z,92.12
2019-04-28T02:36:32.223Z,92.51
2019-04-28T02:38:58.007Z,91.94
2019-04-28T02:41:23.800Z,91.53
2019-04-28T02:43:51.028Z,91.52
2019-04-28T02:46:17.097Z,91.67
2019-04-28T02:48:42.894Z,91.82
2019-04-28T02:51:16.396Z,92.18
2019-04-28T02:53:42.884Z,92.05
2019-04-28T02:56:11.242Z,91.99
2019-04-28T02:58:36.561Z,92.29
2019-04-28T03:01:12.971Z,92.29
2019-04-28T03:03:30.885Z,92.70
2019-04-28T03:05:56.740Z,92.70
2019-04-28T03:08:22.676Z,92.40
2019-04-28T03:10:50.910Z,91.95
2019-04-28T03:13:16.219Z,91.87
2019-04-28T03:15:42.011Z,91.87
2019-04-28T03:18:07.905Z,92.27
2019-04-28T03:20:33.704Z,91.61
2019-04-28T03:23:00.964Z,92.25
2019-04-28T03:25:46.670Z,91.79
2019-04-28T03:28:14.386Z,92.02
2019-04-28T03:30:44.684Z,91.25
2019-04-28T03:33:18.402Z,91.82
2019-04-28T03:35:43.863Z,92.12
2019-04-28T03:38:07.809Z,92.49
2019-04-28T03:40:33.920Z,92.49
2019-04-28T03:43:02.852Z,92.85
2019-04-28T03:45:35.347Z,92.75
2019-04-28T03:48:01.161Z,92.50
2019-04-28T03:50:26.938Z,92.58
2019-04-28T03:52:52.728Z,92.37
2019-04-28T03:55:21.161Z,92.78
2019-04-28T03:57:46.225Z,92.49
2019-04-28T04:00:12.510Z,92.28
2019-04-28T04:02:40.919Z,92.55
2019-04-28T04:05:06.006Z,92.45
2019-04-28T04:07:31.790Z,92.02
2019-04-28T04:10:11.162Z,92.58
2019-04-28T04:12:50.890Z,92.54
2019-04-28T04:15:25.361Z,92.54
2019-04-28T04:18:05.025Z,92.60
2019-04-28T04:20:31.190Z,92.45
2019-04-28T04:22:57.021Z,92.14
2019-04-28T04:25:22.813Z,92.14
2019-04-28T04:27:50.231Z,92.47
2019-04-28T04:30:16.967Z,92.32
2019-04-28T04:32:42.755Z,92.32
2019-04-28T04:35:10.382Z,92.27
2019-04-28T04:37:36.247Z,92.04
2019-04-28T04:40:03.243Z,92.04
2019-04-28T04:42:30.698Z,91.91
2019-04-28T04:44:56.644Z,91.62
2019-04-28T04:47:22.425Z,91.81
2019-04-28T04:49:50.328Z,91.98
2019-04-28T04:52:15.932Z,91.58
2019-04-28T04:54:41.727Z,91.58
2019-04-28T04:57:07.532Z,91.63
2019-04-28T04:59:34.629Z,91.63
2019-04-28T05:02:02.487Z,92.27
2019-04-28T05:04:42.019Z,92.27
2019-04-28T05:07:07.808Z,91.82
2019-04-28T05:09:33.602Z,91.82
2019-04-28T05:11:59.830Z,91.72
2019-04-28T05:14:25.679Z,91.70
2019-04-28T05:16:51.461Z,91.72
2019-04-28T05:19:17.263Z,91.87
2019-04-28T05:21:43.044Z,91.28
2019-04-28T05:24:26.929Z,91.47
2019-04-28T05:26:52.723Z,90.92
2019-04-28T05:29:19.917Z,90.92
2019-04-28T05:31:46.329Z,91.18
2019-04-28T05:34:12.111Z,91.38
2019-04-28T05:36:42.460Z,91.21
2019-04-28T05:39:05.897Z,90.86
2019-04-28T05:41:31.701Z,91.11
2019-04-28T05:43:57.475Z,91.52
2019-04-28T05:46:23.282Z,91.13
2019-04-28T05:48:51.320Z,91.45
2019-04-28T05:51:19.904Z,90.80
2019-04-28T05:53:53.588Z,90.80
2019-04-28T05:56:20.384Z,91.03
2019-04-28T05:58:48.049Z,90.96
2019-04-28T06:01:15.764Z,91.54
2019-04-28T06:03:42.255Z,91.54
2019-04-28T06:06:10.113Z,91.50
2019-04-28T06:08:37.649Z,91.13
2019-04-28T06:11:21.997Z,91.11
2019-04-28T06:13:47.797Z,91.22
2019-04-28T06:16:13.583Z,91.28
2019-04-28T06:18:42.101Z,91.89
2019-04-28T06:21:07.151Z,91.55
2019-04-28T06:23:32.939Z,91.59
2019-04-28T06:25:58.740Z,91.52
2019-04-28T06:28:24.530Z,91.77
2019-04-28T06:30:50.355Z,91.15
2019-04-28T06:33:16.142Z,91.15
2019-04-28T06:35:41.942Z,91.67
2019-04-28T06:38:07.729Z,91.46
2019-04-28T06:40:33.523Z,91.49
2019-04-28T06:42:59.311Z,91.82
2019-04-28T06:45:25.094Z,91.66
2019-04-28T06:47:50.897Z,91.60
2019-04-28T06:50:16.676Z,91.27
2019-04-28T06:52:42.479Z,91.31
2019-04-28T06:55:08.465Z,91.61
2019-04-28T06:57:34.257Z,91.68
2019-04-28T07:00:00.044Z,91.54
2019-04-28T07:02:25.834Z,91.63
2019-04-28T07:05:01.261Z,91.59
2019-04-28T07:07:19.330Z,91.83
2019-04-28T07:09:45.112Z,91.93
2019-04-28T07:12:10.908Z,91.96
2019-04-28T07:14:36.699Z,91.60
2019-04-28T07:17:02.497Z,91.59
2019-04-28T07:19:28.303Z,91.80
2019-04-28T07:21:55.991Z,91.42
2019-04-28T07:24:21.780Z,91.58
2019-04-28T07:26:47.574Z,91.74
2019-04-28T07:29:13.360Z,91.89
2019-04-28T07:31:39.304Z,91.61
2019-04-28T07:34:05.081Z,92.24
2019-04-28T07:36:30.865Z,92.26
2019-04-28T07:38:56.663Z,92.15
2019-04-28T07:41:22.443Z,92.27
2019-04-28T07:43:48.249Z,92.71
2019-04-28T07:46:14.032Z,92.64
2019-04-28T07:48:39.824Z,92.34
2019-04-28T07:51:05.615Z,92.34
2019-04-28T07:53:39.081Z,92.36
2019-04-28T07:56:04.895Z,92.91
2019-04-28T07:58:30.711Z,92.91
2019-04-28T08:00:56.474Z,92.54
2019-04-28T08:03:22.261Z,92.40
2019-04-28T08:05:48.040Z,92.60
2019-04-28T08:08:13.835Z,92.78
2019-04-28T08:10:39.969Z,92.62
2019-04-28T08:13:05.757Z,92.21
2019-04-28T08:15:31.535Z,92.21
2019-04-28T08:17:57.326Z,91.80
2019-04-28T08:20:23.134Z,92.00
2019-04-28T08:22:48.917Z,92.11
2019-04-28T08:25:14.707Z,92.06
2019-04-28T08:27:40.494Z,91.68
2019-04-28T08:30:06.588Z,91.54
2019-04-28T08:32:34.293Z,91.31
2019-04-28T08:35:00.092Z,91.27
2019-04-28T08:37:25.879Z,91.27
2019-04-28T08:39:51.693Z,90.73
2019-04-28T08:42:17.464Z,90.40
2019-04-28T08:44:43.254Z,90.51
2019-04-28T08:47:09.336Z,90.83
2019-04-28T08:49:35.148Z,90.50
2019-04-28T08:52:00.930Z,90.31
2019-04-28T08:54:26.911Z,90.60
2019-04-28T08:56:52.696Z,90.16
2019-04-28T08:59:18.560Z,90.11
2019-04-28T09:01:44.339Z,90.03
2019-04-28T09:04:15.510Z,89.57
2019-04-28T09:06:37.954Z,89.76
2019-04-28T09:09:06.046Z,90.09
2019-04-28T09:11:31.950Z,90.27
2019-04-28T09:13:57.811Z,89.78
2019-04-28T09:16:23.614Z,89.43
2019-04-28T09:18:49.489Z,89.49
2019-04-28T09:21:15.286Z,89.29
2019-04-28T09:23:41.790Z,89.60
2019-04-28T09:26:07.703Z,89.54
2019-04-28T09:28:33.498Z,89.70
2019-04-28T09:30:59.315Z,89.46
2019-04-28T09:33:26.264Z,89.36
2019-04-28T09:35:52.169Z,89.65
2019-04-28T09:38:19.173Z,89.14
2019-04-28T09:40:45.631Z,89.52
2019-04-28T09:43:16.093Z,89.39
2019-04-28T09:45:52.748Z,89.61
2019-04-28T09:48:18.771Z,89.81
2019-04-28T09:50:44.560Z,89.56
2019-04-28T09:53:10.355Z,89.82
2019-04-28T09:55:36.142Z,89.52
2019-04-28T09:58:01.936Z,89.40
2019-04-28T10:00:27.715Z,89.58
2019-04-28T10:02:53.511Z,89.39
2019-04-28T10:05:19.299Z,89.29
2019-04-28T10:07:45.091Z,89.16
2019-04-28T10:10:11.145Z,89.19
2019-04-28T10:12:36.954Z,89.59
2019-04-28T10:15:07.523Z,89.67
2019-04-28T10:17:33.458Z,90.33
2019-04-28T10:19:59.417Z,90.42
2019-04-28T10:22:25.216Z,90.29
2019-04-28T10:24:51.044Z,90.48
2019-04-28T10:27:16.914Z,90.41
2019-04-28T10:29:42.701Z,90.14
2019-04-28T10:32:08.594Z,90.28
2019-04-28T10:34:35.399Z,90.33
2019-04-28T10:37:02.330Z,90.00
2019-04-28T10:39:32.462Z,89.61
2019-04-28T10:41:58.309Z,90.17
2019-04-28T10:44:25.162Z,89.74
2019-04-28T10:46:51.051Z,90.61
2019-04-28T10:49:16.975Z,90.61
2019-04-28T10:51:42.739Z,90.51
2019-04-28T10:54:08.538Z,90.47
2019-04-28T10:56:34.425Z,90.70
2019-04-28T10:59:00.547Z,90.68
2019-04-28T11:01:26.369Z,91.17
2019-04-28T11:03:54.055Z,91.17
2019-04-28T11:06:19.851Z,90.84
2019-04-28T11:09:02.280Z,91.40
2019-04-28T11:11:28.164Z,91.65
2019-04-28T11:13:54.055Z,91.65
2019-04-28T11:16:21.756Z,91.91
2019-04-28T11:18:47.575Z,91.91
2019-04-28T11:21:13.356Z,91.68
2019-04-28T11:23:39.249Z,91.51
2019-04-28T11:26:05.040Z,91.17
2019-04-28T11:28:30.821Z,91.52
2019-04-28T11:30:56.640Z,91.82
2019-04-28T11:33:24.328Z,91.74
2019-04-28T11:35:50.735Z,91.88
2019-04-28T11:38:16.530Z,91.88
2019-04-28T11:40:42.322Z,91.65
2019-04-28T11:43:08.115Z,91.85
2019-04-28T11:45:33.920Z,92.01
2019-04-28T11:47:59.762Z,91.67
2019-04-28T11:50:25.596Z,91.48
2019-04-28T11:52:51.379Z,91.71
2019-04-28T11:55:17.173Z,91.42
2019-04-28T11:57:42.974Z,91.25
2019-04-28T12:00:13.678Z,91.30
2019-04-28T12:02:39.484Z,91.35
2019-04-28T12:05:05.478Z,91.07
2019-04-28T12:07:31.257Z,91.23
2019-04-28T12:10:10.731Z,91.58
2019-04-28T12:12:47.446Z,90.95
2019-04-28T12:15:32.846Z,91.10
2019-04-28T12:18:03.418Z,90.98
2019-04-28T12:20:29.219Z,90.98
2019-04-28T12:22:55.016Z,90.84
2019-04-28T12:25:20.810Z,91.09
2019-04-28T12:27:46.598Z,90.37
2019-04-28T12:30:12.790Z,90.80
2019-04-28T12:32:38.606Z,90.64
2019-04-28T12:35:04.588Z,90.64
2019-04-28T12:37:30.383Z,90.00
2019-04-28T12:39:56.173Z,90.21
2019-04-28T12:42:21.992Z,90.21
2019-04-28T12:44:47.775Z,90.13
2019-04-28T12:47:13.573Z,90.06
2019-04-28T12:49:41.259Z,89.82
2019-04-28T12:52:08.065Z,89.57
2019-04-28T12:54:35.760Z,89.83
2019-04-28T12:57:04.131Z,89.83
2019-04-28T12:59:31.822Z,89.90
2019-04-28T13:02:05.183Z,89.92
2019-04-28T13:04:35.686Z,90.16
2019-04-28T13:07:02.970Z,89.98
2019-04-28T13:09:28.747Z,89.88
2019-04-28T13:11:54.628Z,89.55
2019-04-28T13:14:20.417Z,89.40
2019-04-28T13:16:46.323Z,89.93
2019-04-28T13:19:12.194Z,89.16
2019-04-28T13:21:38.005Z,88.50
2019-04-28T13:24:03.937Z,88.29
2019-04-28T13:26:29.755Z,88.47
2019-04-28T13:28:55.554Z,88.25
2019-04-28T13:31:21.365Z,87.73
2019-04-28T13:33:55.802Z,87.12
2019-04-28T13:36:15.475Z,86.76
2019-04-28T13:38:41.350Z,87.68
2019-04-28T13:41:07.231Z,86.70
2019-04-28T13:43:33.039Z,86.48
2019-04-28T13:45:58.848Z,87.18
2019-04-28T13:48:24.636Z,85.68
2019-04-28T13:50:50.464Z,86.39
2019-04-28T13:53:16.221Z,85.67
2019-04-28T13:55:44.034Z,85.33
2019-04-28T13:58:09.928Z,86.02
2019-04-28T14:00:37.657Z,85.16
2019-04-28T14:03:07.412Z,84.60
2019-04-28T14:05:51.378Z,84.31
2019-04-28T14:08:17.178Z,83.19
2019-04-28T14:10:43.020Z,83.14
2019-04-28T14:13:09.168Z,83.52
2019-04-28T14:15:34.999Z,83.07
2019-04-28T14:18:00.786Z,83.65
2019-04-28T14:20:26.588Z,82.55
2019-04-28T14:22:52.379Z,82.34
2019-04-28T14:25:18.176Z,81.98
2019-04-28T14:27:43.977Z,82.12
2019-04-28T14:30:10.081Z,81.03
2019-04-28T14:32:35.901Z,82.08
2019-04-28T14:35:05.619Z,82.08
2019-04-28T14:37:31.371Z,81.92
2019-04-28T14:39:57.242Z,82.59
2019-04-28T14:42:22.971Z,82.70
2019-04-28T14:44:48.892Z,82.93
2019-04-28T14:47:14.644Z,82.47
2019-04-28T14:49:40.473Z,83.36
2019-04-28T14:52:06.344Z,82.73
2019-04-28T14:54:32.161Z,83.77
2019-04-28T14:56:57.996Z,83.94
2019-04-28T14:59:23.831Z,83.83
2019-04-28T15:02:08.043Z,83.34
2019-04-28T15:04:53.918Z,83.27
2019-04-28T15:07:39.496Z,83.30
2019-04-28T15:10:22.146Z,83.93
2019-04-28T15:12:47.939Z,83.64
2019-04-28T15:15:13.844Z,83.47
2019-04-28T15:17:39.795Z,83.10
2019-04-28T15:20:05.633Z,83.22
2019-04-28T15:22:31.533Z,82.81
2019-04-28T15:24:57.363Z,82.95
2019-04-28T15:27:23.164Z,83.06
2019-04-28T15:29:50.353Z,83.09
2019-04-28T15:32:16.274Z,82.69
2019-04-28T15:34:42.340Z,82.62
2019-04-28T15:37:09.916Z,82.36
2019-04-28T15:39:35.932Z,81.75
2019-04-28T15:42:01.759Z,81.98
2019-04-28T15:44:27.541Z,81.29
2019-04-28T15:46:53.338Z,81.42
2019-04-28T15:49:19.231Z,80.85
2019-04-28T15:51:45.027Z,79.85
2019-04-28T15:54:10.815Z,80.66
2019-04-28T15:56:38.809Z,80.61
2019-04-28T15:59:05.295Z,79.94
2019-04-28T16:01:31.223Z,80.74
2019-04-28T16:03:57.002Z,80.96
2019-04-28T16:06:22.813Z,80.63
2019-04-28T16:08:48.738Z,81.27
2019-04-28T16:11:14.747Z,81.10
2019-04-28T16:13:40.488Z,81.00
2019-04-28T16:16:06.276Z,80.67
2019-04-28T16:18:32.077Z,80.20
2019-04-28T16:20:57.948Z,80.60
2019-04-28T16:23:23.961Z,80.95
2019-04-28T16:25:49.890Z,80.17
2019-04-28T16:28:15.671Z,80.51
2019-04-28T16:30:43.416Z,79.97
2019-04-28T16:33:09.222Z,80.07
2019-04-28T16:35:35.000Z,80.48
2019-04-28T16:38:00.808Z,80.87
2019-04-28T16:40:26.847Z,80.70
2019-04-28T16:42:52.637Z,81.18
2019-04-28T16:45:18.823Z,81.09
2019-04-28T16:47:44.757Z,80.69
2019-04-28T16:50:10.715Z,80.77
2019-04-28T16:52:36.523Z,80.70
2019-04-28T16:55:13.980Z,80.17
2019-04-28T16:57:41.719Z,80.66
2019-04-28T17:00:09.402Z,80.54
2019-04-28T17:02:35.994Z,79.79
2019-04-28T17:05:02.081Z,79.47
2019-04-28T17:07:27.874Z,79.41
2019-04-28T17:09:53.662Z,79.13
2019-04-28T17:12:19.457Z,80.09
2019-04-28T17:14:45.248Z,80.29
2019-04-28T17:17:11.127Z,80.24
2019-04-28T17:19:36.936Z,79.60
2019-04-28T17:22:02.844Z,80.43
2019-04-28T17:24:31.229Z,79.96
2019-04-28T17:26:57.035Z,79.92
2019-04-28T17:29:22.847Z,79.88
2019-04-28T17:31:48.738Z,79.88
2019-04-28T17:34:14.540Z,79.36
2019-04-28T17:36:40.317Z,79.47
2019-04-28T17:39:08.551Z,79.81
2019-04-28T17:41:34.360Z,80.02
2019-04-28T17:44:00.217Z,80.57
2019-04-28T17:46:26.029Z,80.73
2019-04-28T17:48:59.254Z,80.64
2019-04-28T17:51:25.052Z,80.38
2019-04-28T17:53:50.956Z,80.80
2019-04-28T17:56:16.743Z,81.21
2019-04-28T17:58:42.605Z,81.34
2019-04-28T18:01:26.436Z,82.03
2019-04-28T18:04:00.061Z,82.12
2019-04-28T18:06:27.751Z,82.12
2019-04-28T18:08:53.553Z,82.46
2019-04-28T18:11:19.360Z,82.68
2019-04-28T18:13:45.175Z,83.15
2019-04-28T18:16:27.543Z,83.34
2019-04-28T18:19:01.139Z,83.43
2019-04-28T18:21:27.053Z,84.01
2019-04-28T18:23:52.866Z,84.01
2019-04-28T18:26:18.648Z,84.08
2019-04-28T18:28:44.437Z,84.23
2019-04-28T18:31:14.922Z,84.25
2019-04-28T18:33:59.138Z,84.73
2019-04-28T18:36:32.609Z,84.56
2019-04-28T18:39:00.306Z,84.56
2019-04-28T18:41:39.889Z,84.76
2019-04-28T18:44:07.581Z,85.46
2019-04-28T18:46:33.384Z,85.54
2019-04-28T18:48:59.166Z,86.08
2019-04-28T18:51:25.168Z,85.74
2019-04-28T18:53:50.972Z,86.29
2019-04-28T18:56:16.773Z,86.29
2019-04-28T18:58:42.560Z,86.50
2019-04-28T19:01:26.715Z,86.41
2019-04-28T19:03:52.507Z,86.44
2019-04-28T19:06:18.299Z,86.44
2019-04-28T19:08:54.792Z,86.77
2019-04-28T19:11:39.072Z,86.77
2019-04-28T19:14:06.993Z,87.31
2019-04-28T19:16:52.620Z,87.27
2019-04-28T19:19:20.308Z,87.32
2019-04-28T19:21:55.742Z,86.99
2019-04-28T19:24:22.191Z,87.32
2019-04-28T19:26:48.001Z,87.66
2019-04-28T19:29:13.779Z,87.66
2019-04-28T19:31:39.575Z,87.34
2019-04-28T19:34:05.372Z,87.93
2019-04-28T19:36:31.172Z,87.91
2019-04-28T19:39:03.541Z,87.59
2019-04-28T19:41:24.668Z,88.06
2019-04-28T19:43:50.456Z,88.06
2019-04-28T19:46:17.866Z,88.36
2019-04-28T19:48:43.649Z,88.41
2019-04-28T19:51:09.437Z,88.99
2019-04-28T19:53:35.235Z,88.62
2019-04-28T19:56:05.528Z,89.04
2019-04-28T19:58:33.228Z,88.74
2019-04-28T20:01:00.947Z,88.90
2019-04-28T20:03:26.738Z,89.03
2019-04-28T20:05:52.515Z,89.05
2019-04-28T20:08:18.308Z,89.08
2019-04-28T20:10:44.101Z,89.35
2019-04-28T20:13:09.907Z,89.35
2019-04-28T20:15:35.689Z,89.17
2019-04-28T20:18:01.497Z,89.33
2019-04-28T20:20:27.291Z,89.03
2019-04-28T20:22:53.092Z,88.85
2019-04-28T20:25:18.875Z,89.19
2019-04-28T20:27:44.666Z,89.11
2019-04-28T20:30:10.656Z,89.12
2019-04-28T20:32:43.899Z,89.03
2019-04-28T20:35:10.783Z,88.34
2019-04-28T20:37:38.465Z,88.40
2019-04-28T20:40:15.750Z,88.27
2019-04-28T20:42:55.221Z,87.90
2019-04-28T20:45:21.015Z,88.98
2019-04-28T20:47:46.807Z,88.98
2019-04-28T20:50:12.607Z,89.49
2019-04-28T20:52:38.400Z,88.99
2019-04-28T20:55:05.299Z,88.77
2019-04-28T20:57:31.087Z,88.12
2019-04-28T20:59:56.891Z,88.12
2019-04-28T21:02:22.671Z,89.06
2019-04-28T21:04:48.463Z,89.65
2019-04-28T21:07:14.356Z,89.51
2019-04-28T21:09:40.161Z,89.51
2019-04-28T21:12:05.936Z,89.71
2019-04-28T21:14:31.737Z,89.29
2019-04-28T21:16:57.516Z,88.99
2019-04-28T21:19:23.312Z,88.67
2019-04-28T21:21:49.122Z,89.33
2019-04-28T21:24:16.932Z,88.40
2019-04-28T21:26:42.628Z,88.58
2019-04-28T21:29:08.415Z,88.63
2019-04-28T21:31:34.206Z,88.56
2019-04-28T21:34:00.044Z,89.48
2019-04-28T21:36:25.825Z,88.48
2019-04-28T21:38:51.608Z,88.47
2019-04-28T21:41:17.399Z,88.83
2019-04-28T21:43:45.082Z,89.72
2019-04-28T21:46:15.387Z,89.02
2019-04-28T21:48:45.845Z,88.49
2019-04-28T21:51:12.304Z,88.38
2019-04-28T21:53:38.236Z,88.84
2019-04-28T21:56:04.328Z,89.44
2019-04-28T21:58:33.289Z,88.58
2019-04-28T22:00:58.011Z,88.46
2019-04-28T22:03:23.901Z,88.75
2019-04-28T22:05:49.710Z,89.02
2019-04-28T22:08:15.992Z,88.99
2019-04-28T22:10:41.809Z,89.67
2019-04-28T22:13:07.587Z,89.67
2019-04-28T22:15:33.415Z,90.46
2019-04-28T22:17:59.184Z,90.41
2019-04-28T22:20:24.976Z,90.01
2019-04-28T22:22:50.804Z,90.10
2019-04-28T22:25:18.487Z,90.98
2019-04-28T22:27:44.275Z,90.80
2019-04-28T22:30:10.258Z,91.08
2019-04-28T22:32:36.580Z,90.79
2019-04-28T22:35:04.192Z,91.06
2019-04-28T22:37:29.984Z,91.03
2019-04-28T22:39:55.765Z,91.47
2019-04-28T22:42:21.562Z,91.47
2019-04-28T22:44:47.464Z,91.13
2019-04-28T22:47:13.239Z,91.40
2019-04-28T22:49:39.021Z,91.80
2019-04-28T22:52:04.812Z,92.19
2019-04-28T22:54:32.514Z,92.45
2019-04-28T22:57:00.216Z,92.45
2019-04-28T22:59:30.666Z,92.00
2019-04-28T23:02:00.998Z,91.96
2019-04-28T23:04:28.691Z,92.07
2019-04-28T23:06:54.587Z,91.91
2019-04-28T23:09:20.669Z,92.25
2019-04-28T23:11:46.490Z,92.15
2019-04-28T23:14:12.271Z,92.30
2019-04-28T23:16:38.050Z,92.15
2019-04-28T23:19:05.749Z,92.17
2019-04-28T23:21:33.439Z,92.15
2019-04-28T23:23:59.236Z,92.30
2019-04-28T23:26:25.011Z,91.92
2019-04-28T23:28:50.809Z,91.72
2019-04-28T23:31:16.594Z,91.85
2019-04-28T23:33:42.461Z,91.87
2019-04-28T23:36:08.330Z,91.87
2019-04-28T23:38:34.145Z,91.74
2019-04-28T23:41:13.788Z,91.81
2019-04-28T23:43:39.595Z,91.86
2019-04-28T23:46:05.379Z,91.86
2019-04-28T23:48:31.172Z,91.68
2019-04-28T23:51:07.647Z,91.43
2019-04-28T23:53:51.522Z,91.57
2019-04-28T23:56:17.261Z,91.39
2019-04-28T23:58:43.176Z,91.70
